Alamo, IN (47916)

11:10 AM EDT on July 26, 2014 (GMT -0400)
Wabash College Campus (KINCRAWF3) Elev 778 ft | 40.04 °N, 86.91 °W | Change Station

Current weather conditions updated 9 seconds ago

Mostly Cloudy
Mostly Cloudy
73.0 °F
Feels Like 72 °F
N
8.3
Wind Variable Wind from SE
Gusts 10.7 mph

Today is forecast to be Much Warmer than yesterday. Thunderstorms developing late tonight.

Today
High -- | Low -- °F
--% Chance of Precip.
Yesterday
High -- | Low -- °F
Precip. -- in
6:41 AM 9:07 PM
Waning Crescent, 0% visible
Pressure 29.88 in
Visibility 10.0 miles
Clouds Mostly Cloudy 5500 ft
Heat Index 72 °F
Dew Point 68 °F
Humidity 84%
Rainfall 0.00 in
Snow Depth Not available.
UV 2 out of 12
Pollen 7.20 out of 12
Air Quality Not available.
Flu Activity Not available.
METAR KLAF 261354Z 23009KT 10SM BKN055 23/19 A2989 RMK AO2 SLP116 T02280194

More Conditions Fewer Conditions

Pressure 29.88 in
Visibility 10.0 miles
Clouds Mostly Cloudy 5500 ft
Heat Index 72 °F
Dew Point 68 °F
Humidity 84%
Rainfall 0.00 in
Snow Depth Not available.
UV 2 out of 12
Pollen 7.20 out of 12
Air Quality Not available.
Flu Activity Not available.
METAR KLAF 261354Z 23009KT 10SM BKN055 23/19 A2989 RMK AO2 SLP116 T02280194

More Conditions Fewer Conditions

10-Day Weather Forecast

Almanac

Astronomy

Jul. 26, 2014 Rise Set
Actual Time 6:41 AM EDT 9:07 PM EDT
Civil Twilight 6:10 AM EDT 9:38 PM EDT
Nautical Twilight 5:32 AM EDT 10:16 PM EDT
Astronomical Twilight 4:49 AM EDT 10:58 PM EDT
Moon 6:33 AM EDT 8:42 PM EDT
Length of Visible Light 15h 28m
Length of Day
14h 26m
Tomorrow will be 1m 48s shorter.
Waning Crescent, 0% of the Moon is Illuminated
Today
Waning Crescent
Jul 26
New
Aug 3
First Quarter
Aug 10
Full
Aug 17
Last Quarter

Today's Extremes

State Highs State Lows

Community

WunderPhotos

Upload Photos

1,737,608 photos uploaded!

Nearby

Snow Depth

Station Depth Elevation
No new snow has been reported.

Earthquake Activity

City Distance Mag. Time & Date
No recent earthquake activity has been reported nearby.
Minimum magnitude displayed is 2.5.

Coastal Water Temperatures

Place Temperature
No Stations Reporting

Nearby Weather Stations

Station Location Temp. Heat Index Dew Point Humidity Wind Precip. Elev Updated Type
Wabash College Campus, Crawfordsville, IN 73.0 °F 72 °F 68 °F 84% SE  at  8.3 mph 0.00 in / hr 778 ft 11:10 AM EDT Rapid Fire
Greencastle, IN 70.5 °F - 67 °F 87% SSE  at  2.0 mph - / hr 814 ft 10:51 AM EDT Normal
Rockville, IN 75.2 °F 75 °F 71 °F 86% South  at  4.0 mph 0.00 in / hr 702 ft 11:10 AM EDT Rapid Fire
Romney, IN 72.8 °F 72 °F 68 °F 86% SSE  at  5.0 mph - / hr 738 ft 10:58 AM EDT Normal
Ash Street, Jamestown, IN 73.5 °F 74 °F 67 °F 81% ENE  at  2.0 mph 0.00 in / hr 974 ft 11:10 AM EDT Normal

Show More Stations Show Fewer Stations